sensor_id;sensor_type;location;lat;lon;timestamp;P1;durP1;ratioP1;P2;durP2;ratioP2
27543;SDS011;17996;51.056;3.656;2023-07-29T00:01:15;6.95;;;3.60;;
27543;SDS011;17996;51.056;3.656;2023-07-29T00:03:41;8.20;;;3.00;;
27543;SDS011;17996;51.056;3.656;2023-07-29T00:06:07;7.53;;;3.70;;
27543;SDS011;17996;51.056;3.656;2023-07-29T00:08:32;4.47;;;2.88;;
27543;SDS011;17996;51.056;3.656;2023-07-29T00:10:58;5.28;;;2.90;;
27543;SDS011;17996;51.056;3.656;2023-07-29T00:13:24;6.63;;;3.50;;
27543;SDS011;17996;51.056;3.656;2023-07-29T00:15:49;7.88;;;3.75;;
27543;SDS011;17996;51.056;3.656;2023-07-29T00:18:18;8.02;;;3.83;;
27543;SDS011;17996;51.056;3.656;2023-07-29T00:20:44;5.63;;;3.30;;
27543;SDS011;17996;51.056;3.656;2023-07-29T00:23:10;5.90;;;3.08;;
27543;SDS011;17996;51.056;3.656;2023-07-29T00:25:36;3.78;;;3.10;;
27543;SDS011;17996;51.056;3.656;2023-07-29T00:28:01;6.03;;;3.67;;
27543;SDS011;17996;51.056;3.656;2023-07-29T00:30:27;8.45;;;3.92;;
27543;SDS011;17996;51.056;3.656;2023-07-29T00:32:53;5.00;;;3.40;;
27543;SDS011;17996;51.056;3.656;2023-07-29T00:35:18;5.53;;;3.10;;
27543;SDS011;17996;51.056;3.656;2023-07-29T00:37:44;5.60;;;3.22;;
27543;SDS011;17996;51.056;3.656;2023-07-29T00:40:13;5.13;;;3.20;;
27543;SDS011;17996;51.056;3.656;2023-07-29T00:42:42;9.65;;;4.20;;
27543;SDS011;17996;51.056;3.656;2023-07-29T00:45:08;4.30;;;3.42;;
27543;SDS011;17996;51.056;3.656;2023-07-29T00:47:34;8.20;;;3.55;;
27543;SDS011;17996;51.056;3.656;2023-07-29T00:50:00;5.05;;;3.88;;
27543;SDS011;17996;51.056;3.656;2023-07-29T00:52:26;12.43;;;3.95;;
27543;SDS011;17996;51.056;3.656;2023-07-29T00:54:52;9.07;;;4.10;;
27543;SDS011;17996;51.056;3.656;2023-07-29T00:57:18;6.28;;;3.85;;
27543;SDS011;17996;51.056;3.656;2023-07-29T00:59:45;7.78;;;3.95;;
27543;SDS011;17996;51.056;3.656;2023-07-29T01:02:11;7.97;;;3.60;;
27543;SDS011;17996;51.056;3.656;2023-07-29T01:04:37;5.45;;;3.83;;
27543;SDS011;17996;51.056;3.656;2023-07-29T01:07:07;9.73;;;4.28;;
27543;SDS011;17996;51.056;3.656;2023-07-29T01:09:55;5.03;;;4.00;;
27543;SDS011;17996;51.056;3.656;2023-07-29T01:15:40;7.78;;;3.30;;
27543;SDS011;17996;51.056;3.656;2023-07-29T01:18:31;9.95;;;3.72;;
27543;SDS011;17996;51.056;3.656;2023-07-29T01:20:59;6.75;;;4.20;;
27543;SDS011;17996;51.056;3.656;2023-07-29T01:23:29;6.47;;;3.53;;
27543;SDS011;17996;51.056;3.656;2023-07-29T01:26:01;5.50;;;3.38;;
27543;SDS011;17996;51.056;3.656;2023-07-29T01:28:28;6.72;;;3.10;;
27543;SDS011;17996;51.056;3.656;2023-07-29T01:30:57;6.20;;;3.53;;
27543;SDS011;17996;51.056;3.656;2023-07-29T01:33:39;9.23;;;3.25;;
27543;SDS011;17996;51.056;3.656;2023-07-29T01:36:15;8.05;;;3.47;;
27543;SDS011;17996;51.056;3.656;2023-07-29T01:38:48;7.60;;;3.40;;
27543;SDS011;17996;51.056;3.656;2023-07-29T01:41:16;9.75;;;3.38;;
27543;SDS011;17996;51.056;3.656;2023-07-29T01:43:43;7.80;;;3.30;;
27543;SDS011;17996;51.056;3.656;2023-07-29T01:46:10;8.32;;;3.30;;
27543;SDS011;17996;51.056;3.656;2023-07-29T01:48:39;5.70;;;3.20;;
27543;SDS011;17996;51.056;3.656;2023-07-29T01:51:05;4.97;;;3.63;;
27543;SDS011;17996;51.056;3.656;2023-07-29T01:53:31;7.80;;;3.28;;
27543;SDS011;17996;51.056;3.656;2023-07-29T01:55:57;6.97;;;3.75;;
27543;SDS011;17996;51.056;3.656;2023-07-29T01:58:23;5.57;;;3.35;;
27543;SDS011;17996;51.056;3.656;2023-07-29T02:00:49;9.10;;;3.92;;
27543;SDS011;17996;51.056;3.656;2023-07-29T02:03:15;5.72;;;3.25;;
27543;SDS011;17996;51.056;3.656;2023-07-29T02:05:41;7.28;;;3.42;;
27543;SDS011;17996;51.056;3.656;2023-07-29T02:08:09;6.97;;;4.20;;
27543;SDS011;17996;51.056;3.656;2023-07-29T02:10:35;6.28;;;3.13;;
27543;SDS011;17996;51.056;3.656;2023-07-29T02:13:02;11.02;;;3.45;;
27543;SDS011;17996;51.056;3.656;2023-07-29T02:15:28;5.00;;;3.15;;
27543;SDS011;17996;51.056;3.656;2023-07-29T02:17:54;5.10;;;3.45;;
27543;SDS011;17996;51.056;3.656;2023-07-29T02:20:20;6.70;;;3.50;;
27543;SDS011;17996;51.056;3.656;2023-07-29T02:22:46;6.93;;;3.65;;
27543;SDS011;17996;51.056;3.656;2023-07-29T02:25:13;7.20;;;2.95;;
27543;SDS011;17996;51.056;3.656;2023-07-29T02:27:39;5.85;;;3.35;;
27543;SDS011;17996;51.056;3.656;2023-07-29T02:30:05;5.68;;;3.47;;
27543;SDS011;17996;51.056;3.656;2023-07-29T02:32:31;6.57;;;3.42;;
27543;SDS011;17996;51.056;3.656;2023-07-29T02:34:57;7.95;;;3.45;;
27543;SDS011;17996;51.056;3.656;2023-07-29T02:37:22;6.40;;;3.20;;
27543;SDS011;17996;51.056;3.656;2023-07-29T02:39:48;4.15;;;2.92;;
27543;SDS011;17996;51.056;3.656;2023-07-29T02:42:14;5.05;;;2.88;;
27543;SDS011;17996;51.056;3.656;2023-07-29T02:44:40;7.55;;;3.20;;
27543;SDS011;17996;51.056;3.656;2023-07-29T02:47:06;9.52;;;2.60;;
27543;SDS011;17996;51.056;3.656;2023-07-29T02:49:31;5.50;;;3.50;;
27543;SDS011;17996;51.056;3.656;2023-07-29T02:51:57;3.55;;;3.03;;
27543;SDS011;17996;51.056;3.656;2023-07-29T02:54:22;6.15;;;3.60;;
27543;SDS011;17996;51.056;3.656;2023-07-29T02:56:49;6.07;;;2.70;;
27543;SDS011;17996;51.056;3.656;2023-07-29T02:59:15;4.78;;;2.90;;
27543;SDS011;17996;51.056;3.656;2023-07-29T03:01:41;7.65;;;3.47;;
27543;SDS011;17996;51.056;3.656;2023-07-29T03:04:07;5.30;;;3.58;;
27543;SDS011;17996;51.056;3.656;2023-07-29T03:06:33;5.72;;;3.13;;
27543;SDS011;17996;51.056;3.656;2023-07-29T03:08:58;10.57;;;3.80;;
27543;SDS011;17996;51.056;3.656;2023-07-29T03:11:24;8.05;;;3.28;;
27543;SDS011;17996;51.056;3.656;2023-07-29T03:13:50;4.45;;;3.17;;
27543;SDS011;17996;51.056;3.656;2023-07-29T03:16:16;12.02;;;4.30;;
27543;SDS011;17996;51.056;3.656;2023-07-29T03:18:43;8.27;;;3.28;;
27543;SDS011;17996;51.056;3.656;2023-07-29T03:21:09;3.88;;;3.15;;
27543;SDS011;17996;51.056;3.656;2023-07-29T03:23:36;6.75;;;3.55;;
27543;SDS011;17996;51.056;3.656;2023-07-29T03:26:03;4.97;;;3.28;;
27543;SDS011;17996;51.056;3.656;2023-07-29T03:28:35;4.50;;;3.13;;
27543;SDS011;17996;51.056;3.656;2023-07-29T03:31:02;5.90;;;3.22;;
27543;SDS011;17996;51.056;3.656;2023-07-29T03:33:28;6.25;;;3.40;;
27543;SDS011;17996;51.056;3.656;2023-07-29T03:35:54;7.95;;;3.22;;
27543;SDS011;17996;51.056;3.656;2023-07-29T03:38:20;5.28;;;3.13;;
27543;SDS011;17996;51.056;3.656;2023-07-29T03:40:46;3.97;;;2.85;;
27543;SDS011;17996;51.056;3.656;2023-07-29T03:43:11;8.27;;;4.45;;
27543;SDS011;17996;51.056;3.656;2023-07-29T03:45:37;4.68;;;3.05;;
27543;SDS011;17996;51.056;3.656;2023-07-29T03:48:04;6.18;;;4.13;;
27543;SDS011;17996;51.056;3.656;2023-07-29T03:50:30;6.43;;;3.65;;
27543;SDS011;17996;51.056;3.656;2023-07-29T03:52:56;7.40;;;3.38;;
27543;SDS011;17996;51.056;3.656;2023-07-29T03:55:22;7.25;;;3.55;;
27543;SDS011;17996;51.056;3.656;2023-07-29T03:57:47;10.60;;;3.88;;
27543;SDS011;17996;51.056;3.656;2023-07-29T04:00:13;5.25;;;3.58;;
27543;SDS011;17996;51.056;3.656;2023-07-29T04:02:39;9.88;;;3.35;;
27543;SDS011;17996;51.056;3.656;2023-07-29T04:05:06;7.22;;;3.35;;
27543;SDS011;17996;51.056;3.656;2023-07-29T04:07:34;4.68;;;3.42;;
27543;SDS011;17996;51.056;3.656;2023-07-29T04:10:00;9.50;;;3.90;;
27543;SDS011;17996;51.056;3.656;2023-07-29T04:12:26;7.22;;;3.72;;
27543;SDS011;17996;51.056;3.656;2023-07-29T04:14:52;11.07;;;3.10;;
27543;SDS011;17996;51.056;3.656;2023-07-29T04:17:18;7.47;;;3.95;;
27543;SDS011;17996;51.056;3.656;2023-07-29T04:19:44;5.43;;;3.65;;
27543;SDS011;17996;51.056;3.656;2023-07-29T04:22:09;4.30;;;3.30;;
27543;SDS011;17996;51.056;3.656;2023-07-29T04:24:35;4.68;;;3.70;;
27543;SDS011;17996;51.056;3.656;2023-07-29T04:27:01;6.35;;;3.85;;
27543;SDS011;17996;51.056;3.656;2023-07-29T04:29:26;9.38;;;4.13;;
27543;SDS011;17996;51.056;3.656;2023-07-29T04:31:52;7.28;;;3.97;;
27543;SDS011;17996;51.056;3.656;2023-07-29T04:34:18;6.95;;;4.25;;
27543;SDS011;17996;51.056;3.656;2023-07-29T04:36:47;7.50;;;3.75;;
27543;SDS011;17996;51.056;3.656;2023-07-29T04:39:13;4.88;;;3.80;;
27543;SDS011;17996;51.056;3.656;2023-07-29T04:41:39;10.48;;;4.10;;
27543;SDS011;17996;51.056;3.656;2023-07-29T04:44:05;8.75;;;4.05;;
27543;SDS011;17996;51.056;3.656;2023-07-29T04:46:31;5.45;;;4.07;;
27543;SDS011;17996;51.056;3.656;2023-07-29T04:48:56;11.77;;;4.40;;
27543;SDS011;17996;51.056;3.656;2023-07-29T04:51:22;9.68;;;4.03;;
27543;SDS011;17996;51.056;3.656;2023-07-29T04:53:48;5.32;;;3.97;;
27543;SDS011;17996;51.056;3.656;2023-07-29T04:56:14;9.52;;;4.53;;
27543;SDS011;17996;51.056;3.656;2023-07-29T04:58:39;5.20;;;3.72;;
27543;SDS011;17996;51.056;3.656;2023-07-29T05:01:05;6.57;;;4.13;;
27543;SDS011;17996;51.056;3.656;2023-07-29T05:03:31;7.32;;;3.95;;
27543;SDS011;17996;51.056;3.656;2023-07-29T05:05:57;6.72;;;3.80;;
27543;SDS011;17996;51.056;3.656;2023-07-29T05:08:24;11.13;;;4.80;;
27543;SDS011;17996;51.056;3.656;2023-07-29T05:10:50;5.43;;;4.50;;
27543;SDS011;17996;51.056;3.656;2023-07-29T05:13:17;11.73;;;4.40;;
27543;SDS011;17996;51.056;3.656;2023-07-29T05:15:44;7.70;;;4.32;;
27543;SDS011;17996;51.056;3.656;2023-07-29T05:18:10;4.53;;;3.80;;
27543;SDS011;17996;51.056;3.656;2023-07-29T05:20:36;9.95;;;4.28;;
27543;SDS011;17996;51.056;3.656;2023-07-29T05:23:02;6.93;;;3.35;;
27543;SDS011;17996;51.056;3.656;2023-07-29T05:25:28;7.13;;;3.75;;
27543;SDS011;17996;51.056;3.656;2023-07-29T05:27:54;5.43;;;3.38;;
27543;SDS011;17996;51.056;3.656;2023-07-29T05:30:20;8.23;;;3.58;;
27543;SDS011;17996;51.056;3.656;2023-07-29T05:32:45;5.95;;;3.35;;
27543;SDS011;17996;51.056;3.656;2023-07-29T05:35:11;9.77;;;3.42;;
27543;SDS011;17996;51.056;3.656;2023-07-29T05:37:39;11.23;;;4.25;;
27543;SDS011;17996;51.056;3.656;2023-07-29T05:40:06;8.65;;;3.58;;
27543;SDS011;17996;51.056;3.656;2023-07-29T05:42:32;7.20;;;3.53;;
27543;SDS011;17996;51.056;3.656;2023-07-29T05:44:58;7.82;;;3.13;;
27543;SDS011;17996;51.056;3.656;2023-07-29T05:47:24;6.50;;;3.08;;
27543;SDS011;17996;51.056;3.656;2023-07-29T05:49:50;5.43;;;3.25;;
27543;SDS011;17996;51.056;3.656;2023-07-29T05:52:16;3.17;;;2.85;;
27543;SDS011;17996;51.056;3.656;2023-07-29T05:54:42;7.45;;;3.58;;
27543;SDS011;17996;51.056;3.656;2023-07-29T05:57:11;5.18;;;3.40;;
27543;SDS011;17996;51.056;3.656;2023-07-29T05:59:37;8.15;;;3.60;;
27543;SDS011;17996;51.056;3.656;2023-07-29T06:02:03;6.43;;;3.10;;
27543;SDS011;17996;51.056;3.656;2023-07-29T06:04:29;8.40;;;3.42;;
27543;SDS011;17996;51.056;3.656;2023-07-29T06:06:55;6.70;;;3.42;;
27543;SDS011;17996;51.056;3.656;2023-07-29T06:09:21;4.65;;;3.17;;
27543;SDS011;17996;51.056;3.656;2023-07-29T06:11:47;5.53;;;3.50;;
27543;SDS011;17996;51.056;3.656;2023-07-29T06:14:13;6.18;;;3.05;;
27543;SDS011;17996;51.056;3.656;2023-07-29T06:16:39;5.97;;;3.05;;
27543;SDS011;17996;51.056;3.656;2023-07-29T06:19:04;4.43;;;2.50;;
27543;SDS011;17996;51.056;3.656;2023-07-29T06:21:30;3.97;;;2.80;;
27543;SDS011;17996;51.056;3.656;2023-07-29T06:23:56;4.82;;;2.80;;
27543;SDS011;17996;51.056;3.656;2023-07-29T06:26:21;8.10;;;3.33;;
27543;SDS011;17996;51.056;3.656;2023-07-29T06:28:47;3.45;;;2.75;;
27543;SDS011;17996;51.056;3.656;2023-07-29T06:31:13;6.10;;;2.88;;
27543;SDS011;17996;51.056;3.656;2023-07-29T06:33:39;6.32;;;2.67;;
27543;SDS011;17996;51.056;3.656;2023-07-29T06:36:04;7.45;;;2.67;;
27543;SDS011;17996;51.056;3.656;2023-07-29T06:38:30;5.32;;;2.67;;
27543;SDS011;17996;51.056;3.656;2023-07-29T06:40:56;5.35;;;2.70;;
27543;SDS011;17996;51.056;3.656;2023-07-29T06:43:22;8.43;;;2.80;;
27543;SDS011;17996;51.056;3.656;2023-07-29T06:45:47;7.43;;;2.83;;
27543;SDS011;17996;51.056;3.656;2023-07-29T06:48:13;4.20;;;2.33;;
27543;SDS011;17996;51.056;3.656;2023-07-29T06:50:39;4.20;;;2.60;;
27543;SDS011;17996;51.056;3.656;2023-07-29T06:53:04;2.88;;;2.30;;
27543;SDS011;17996;51.056;3.656;2023-07-29T06:55:31;7.28;;;2.70;;
27543;SDS011;17996;51.056;3.656;2023-07-29T06:57:56;4.70;;;2.53;;
27543;SDS011;17996;51.056;3.656;2023-07-29T07:00:22;8.30;;;2.83;;
27543;SDS011;17996;51.056;3.656;2023-07-29T07:02:48;6.18;;;2.65;;
27543;SDS011;17996;51.056;3.656;2023-07-29T07:05:14;6.55;;;2.60;;
27543;SDS011;17996;51.056;3.656;2023-07-29T07:07:40;5.43;;;2.85;;
27543;SDS011;17996;51.056;3.656;2023-07-29T07:10:06;3.60;;;2.58;;
27543;SDS011;17996;51.056;3.656;2023-07-29T07:12:31;4.78;;;2.75;;
27543;SDS011;17996;51.056;3.656;2023-07-29T07:14:57;4.40;;;2.53;;
27543;SDS011;17996;51.056;3.656;2023-07-29T07:17:23;4.97;;;2.80;;
27543;SDS011;17996;51.056;3.656;2023-07-29T07:19:48;5.72;;;2.85;;
27543;SDS011;17996;51.056;3.656;2023-07-29T07:22:15;5.05;;;3.00;;
27543;SDS011;17996;51.056;3.656;2023-07-29T07:24:41;3.88;;;2.58;;
27543;SDS011;17996;51.056;3.656;2023-07-29T07:27:06;5.22;;;2.50;;
27543;SDS011;17996;51.056;3.656;2023-07-29T07:29:32;5.40;;;2.47;;
27543;SDS011;17996;51.056;3.656;2023-07-29T07:31:58;5.43;;;2.80;;
27543;SDS011;17996;51.056;3.656;2023-07-29T07:34:24;4.45;;;2.00;;
27543;SDS011;17996;51.056;3.656;2023-07-29T07:36:49;6.05;;;1.90;;
27543;SDS011;17996;51.056;3.656;2023-07-29T07:39:15;3.60;;;2.53;;
27543;SDS011;17996;51.056;3.656;2023-07-29T07:41:41;3.72;;;2.33;;
27543;SDS011;17996;51.056;3.656;2023-07-29T07:44:07;4.07;;;2.05;;
27543;SDS011;17996;51.056;3.656;2023-07-29T07:46:33;5.10;;;2.28;;
27543;SDS011;17996;51.056;3.656;2023-07-29T07:48:59;3.35;;;2.33;;
27543;SDS011;17996;51.056;3.656;2023-07-29T07:51:24;2.67;;;2.10;;
27543;SDS011;17996;51.056;3.656;2023-07-29T07:53:50;6.05;;;2.10;;
27543;SDS011;17996;51.056;3.656;2023-07-29T07:56:16;6.28;;;2.40;;
27543;SDS011;17996;51.056;3.656;2023-07-29T07:58:41;3.47;;;2.20;;
27543;SDS011;17996;51.056;3.656;2023-07-29T08:01:07;2.22;;;1.77;;
27543;SDS011;17996;51.056;3.656;2023-07-29T08:03:34;2.67;;;2.00;;
27543;SDS011;17996;51.056;3.656;2023-07-29T08:06:00;5.25;;;2.45;;
27543;SDS011;17996;51.056;3.656;2023-07-29T08:08:26;4.32;;;2.50;;
27543;SDS011;17996;51.056;3.656;2023-07-29T08:10:53;2.67;;;2.08;;
27543;SDS011;17996;51.056;3.656;2023-07-29T08:13:20;3.90;;;2.13;;
27543;SDS011;17996;51.056;3.656;2023-07-29T08:15:47;5.75;;;2.20;;
27543;SDS011;17996;51.056;3.656;2023-07-29T08:18:14;7.03;;;2.70;;
27543;SDS011;17996;51.056;3.656;2023-07-29T08:20:40;6.38;;;2.35;;
27543;SDS011;17996;51.056;3.656;2023-07-29T08:23:06;5.85;;;2.55;;
27543;SDS011;17996;51.056;3.656;2023-07-29T08:25:31;5.50;;;2.30;;
27543;SDS011;17996;51.056;3.656;2023-07-29T08:27:57;7.53;;;3.20;;
27543;SDS011;17996;51.056;3.656;2023-07-29T08:30:23;4.65;;;2.83;;
27543;SDS011;17996;51.056;3.656;2023-07-29T08:32:48;8.80;;;2.78;;
27543;SDS011;17996;51.056;3.656;2023-07-29T08:35:15;11.00;;;2.70;;
27543;SDS011;17996;51.056;3.656;2023-07-29T08:37:41;3.67;;;2.70;;
27543;SDS011;17996;51.056;3.656;2023-07-29T08:40:06;4.22;;;2.63;;
27543;SDS011;17996;51.056;3.656;2023-07-29T08:42:33;5.30;;;2.83;;
27543;SDS011;17996;51.056;3.656;2023-07-29T08:45:06;5.90;;;2.90;;
27543;SDS011;17996;51.056;3.656;2023-07-29T08:47:33;4.68;;;2.40;;
27543;SDS011;17996;51.056;3.656;2023-07-29T08:49:59;2.50;;;2.30;;
27543;SDS011;17996;51.056;3.656;2023-07-29T08:52:27;10.90;;;2.92;;
27543;SDS011;17996;51.056;3.656;2023-07-29T08:54:57;6.15;;;2.30;;
27543;SDS011;17996;51.056;3.656;2023-07-29T08:57:23;3.00;;;2.05;;
27543;SDS011;17996;51.056;3.656;2023-07-29T08:59:49;11.02;;;3.30;;
27543;SDS011;17996;51.056;3.656;2023-07-29T09:02:15;5.57;;;2.80;;
27543;SDS011;17996;51.056;3.656;2023-07-29T09:04:40;6.55;;;2.05;;
27543;SDS011;17996;51.056;3.656;2023-07-29T09:07:07;6.25;;;2.85;;
27543;SDS011;17996;51.056;3.656;2023-07-29T09:09:34;3.47;;;2.33;;
27543;SDS011;17996;51.056;3.656;2023-07-29T09:12:00;3.55;;;2.08;;
27543;SDS011;17996;51.056;3.656;2023-07-29T09:14:26;5.03;;;2.72;;
27543;SDS011;17996;51.056;3.656;2023-07-29T09:16:52;15.07;;;2.88;;
27543;SDS011;17996;51.056;3.656;2023-07-29T09:19:18;4.75;;;2.67;;
27543;SDS011;17996;51.056;3.656;2023-07-29T09:21:45;6.38;;;2.72;;
27543;SDS011;17996;51.056;3.656;2023-07-29T09:24:12;7.25;;;2.28;;
27543;SDS011;17996;51.056;3.656;2023-07-29T09:26:41;4.05;;;2.35;;
27543;SDS011;17996;51.056;3.656;2023-07-29T09:29:14;3.65;;;2.15;;
27543;SDS011;17996;51.056;3.656;2023-07-29T09:31:40;4.68;;;2.53;;
27543;SDS011;17996;51.056;3.656;2023-07-29T09:34:06;4.22;;;2.35;;
27543;SDS011;17996;51.056;3.656;2023-07-29T09:36:32;4.68;;;2.47;;
27543;SDS011;17996;51.056;3.656;2023-07-29T09:38:58;4.25;;;2.30;;
27543;SDS011;17996;51.056;3.656;2023-07-29T09:41:25;6.60;;;3.28;;
27543;SDS011;17996;51.056;3.656;2023-07-29T09:43:56;11.70;;;3.47;;
27543;SDS011;17996;51.056;3.656;2023-07-29T09:46:23;5.32;;;3.67;;
27543;SDS011;17996;51.056;3.656;2023-07-29T09:48:52;3.83;;;3.20;;
27543;SDS011;17996;51.056;3.656;2023-07-29T09:51:22;7.50;;;3.67;;
27543;SDS011;17996;51.056;3.656;2023-07-29T09:53:49;4.82;;;3.67;;
27543;SDS011;17996;51.056;3.656;2023-07-29T09:56:16;6.70;;;3.50;;
27543;SDS011;17996;51.056;3.656;2023-07-29T09:58:45;3.95;;;3.53;;
27543;SDS011;17996;51.056;3.656;2023-07-29T10:01:11;6.63;;;3.90;;
27543;SDS011;17996;51.056;3.656;2023-07-29T10:03:37;6.43;;;4.10;;
27543;SDS011;17996;51.056;3.656;2023-07-29T10:06:04;10.20;;;3.90;;
27543;SDS011;17996;51.056;3.656;2023-07-29T10:08:31;5.50;;;3.85;;
27543;SDS011;17996;51.056;3.656;2023-07-29T10:11:00;5.00;;;3.60;;
27543;SDS011;17996;51.056;3.656;2023-07-29T10:13:26;4.55;;;3.17;;
27543;SDS011;17996;51.056;3.656;2023-07-29T10:15:56;7.25;;;3.42;;
27543;SDS011;17996;51.056;3.656;2023-07-29T10:18:22;5.00;;;3.13;;
27543;SDS011;17996;51.056;3.656;2023-07-29T10:20:51;4.65;;;3.35;;
27543;SDS011;17996;51.056;3.656;2023-07-29T10:23:17;5.03;;;3.72;;
27543;SDS011;17996;51.056;3.656;2023-07-29T10:25:46;4.10;;;3.22;;
27543;SDS011;17996;51.056;3.656;2023-07-29T10:28:18;7.00;;;3.45;;
27543;SDS011;17996;51.056;3.656;2023-07-29T10:30:49;4.35;;;3.53;;
27543;SDS011;17996;51.056;3.656;2023-07-29T10:33:16;8.57;;;4.28;;
27543;SDS011;17996;51.056;3.656;2023-07-29T10:35:41;50.25;;;7.70;;
27543;SDS011;17996;51.056;3.656;2023-07-29T10:38:07;47.90;;;8.52;;
27543;SDS011;17996;51.056;3.656;2023-07-29T10:40:52;51.88;;;6.53;;
27543;SDS011;17996;51.056;3.656;2023-07-29T10:45:57;14.15;;;4.90;;
27543;SDS011;17996;51.056;3.656;2023-07-29T10:48:39;7.97;;;4.78;;
27543;SDS011;17996;51.056;3.656;2023-07-29T10:53:55;11.20;;;3.50;;
27543;SDS011;17996;51.056;3.656;2023-07-29T10:56:29;12.07;;;2.90;;
27543;SDS011;17996;51.056;3.656;2023-07-29T10:58:56;7.10;;;2.88;;
27543;SDS011;17996;51.056;3.656;2023-07-29T11:01:27;6.78;;;2.83;;
27543;SDS011;17996;51.056;3.656;2023-07-29T11:07:24;3.00;;;2.25;;
27543;SDS011;17996;51.056;3.656;2023-07-29T11:17:48;8.70;;;3.53;;
27543;SDS011;17996;51.056;3.656;2023-07-29T11:20:16;4.57;;;2.75;;
27543;SDS011;17996;51.056;3.656;2023-07-29T11:22:43;7.13;;;2.97;;
27543;SDS011;17996;51.056;3.656;2023-07-29T11:25:10;3.95;;;2.90;;
27543;SDS011;17996;51.056;3.656;2023-07-29T11:27:37;8.00;;;3.47;;
27543;SDS011;17996;51.056;3.656;2023-07-29T11:30:04;7.18;;;3.10;;
27543;SDS011;17996;51.056;3.656;2023-07-29T11:32:31;5.20;;;3.43;;
27543;SDS011;17996;51.056;3.656;2023-07-29T11:35:01;8.05;;;3.33;;
27543;SDS011;17996;51.056;3.656;2023-07-29T11:37:28;5.50;;;3.58;;
27543;SDS011;17996;51.056;3.656;2023-07-29T11:39:54;6.32;;;3.97;;
27543;SDS011;17996;51.056;3.656;2023-07-29T11:42:20;9.02;;;4.30;;
27543;SDS011;17996;51.056;3.656;2023-07-29T11:44:46;5.28;;;3.97;;
27543;SDS011;17996;51.056;3.656;2023-07-29T11:47:12;25.58;;;5.25;;
27543;SDS011;17996;51.056;3.656;2023-07-29T11:49:39;7.72;;;4.97;;
27543;SDS011;17996;51.056;3.656;2023-07-29T11:52:06;8.35;;;4.63;;
27543;SDS011;17996;51.056;3.656;2023-07-29T11:54:36;11.48;;;4.95;;
27543;SDS011;17996;51.056;3.656;2023-07-29T11:57:06;7.88;;;5.15;;
27543;SDS011;17996;51.056;3.656;2023-07-29T11:59:33;8.20;;;4.32;;
27543;SDS011;17996;51.056;3.656;2023-07-29T12:02:13;7.53;;;4.07;;
27543;SDS011;17996;51.056;3.656;2023-07-29T12:04:44;5.35;;;4.13;;
27543;SDS011;17996;51.056;3.656;2023-07-29T12:07:12;4.47;;;3.47;;
27543;SDS011;17996;51.056;3.656;2023-07-29T12:09:39;8.20;;;3.25;;
27543;SDS011;17996;51.056;3.656;2023-07-29T12:12:05;4.35;;;2.85;;
27543;SDS011;17996;51.056;3.656;2023-07-29T12:14:31;4.93;;;2.60;;
27543;SDS011;17996;51.056;3.656;2023-07-29T12:17:01;3.47;;;2.40;;
27543;SDS011;17996;51.056;3.656;2023-07-29T12:19:32;2.78;;;2.30;;
27543;SDS011;17996;51.056;3.656;2023-07-29T12:21:58;4.65;;;2.90;;
27543;SDS011;17996;51.056;3.656;2023-07-29T12:24:24;6.15;;;2.47;;
27543;SDS011;17996;51.056;3.656;2023-07-29T12:26:50;3.50;;;2.25;;
27543;SDS011;17996;51.056;3.656;2023-07-29T12:29:17;4.40;;;2.17;;
27543;SDS011;17996;51.056;3.656;2023-07-29T12:31:45;7.73;;;2.13;;
27543;SDS011;17996;51.056;3.656;2023-07-29T12:34:20;10.15;;;2.50;;
27543;SDS011;17996;51.056;3.656;2023-07-29T12:36:47;7.55;;;2.30;;
27543;SDS011;17996;51.056;3.656;2023-07-29T12:39:20;7.28;;;2.25;;
27543;SDS011;17996;51.056;3.656;2023-07-29T12:41:52;4.93;;;2.10;;
27543;SDS011;17996;51.056;3.656;2023-07-29T12:44:19;5.53;;;2.08;;
27543;SDS011;17996;51.056;3.656;2023-07-29T12:46:44;6.93;;;2.10;;
27543;SDS011;17996;51.056;3.656;2023-07-29T12:49:10;2.83;;;2.10;;
27543;SDS011;17996;51.056;3.656;2023-07-29T12:51:37;3.85;;;2.15;;
27543;SDS011;17996;51.056;3.656;2023-07-29T12:54:03;4.05;;;2.17;;
27543;SDS011;17996;51.056;3.656;2023-07-29T12:56:30;3.10;;;2.00;;
27543;SDS011;17996;51.056;3.656;2023-07-29T12:58:56;3.40;;;1.83;;
27543;SDS011;17996;51.056;3.656;2023-07-29T13:01:23;5.10;;;2.45;;
27543;SDS011;17996;51.056;3.656;2023-07-29T13:03:50;7.22;;;2.28;;
27543;SDS011;17996;51.056;3.656;2023-07-29T13:06:16;3.42;;;2.05;;
27543;SDS011;17996;51.056;3.656;2023-07-29T13:08:42;2.50;;;2.30;;
27543;SDS011;17996;51.056;3.656;2023-07-29T13:11:09;4.97;;;1.90;;
27543;SDS011;17996;51.056;3.656;2023-07-29T13:13:34;3.80;;;2.15;;
27543;SDS011;17996;51.056;3.656;2023-07-29T13:16:00;4.93;;;1.90;;
27543;SDS011;17996;51.056;3.656;2023-07-29T13:18:26;2.92;;;1.63;;
27543;SDS011;17996;51.056;3.656;2023-07-29T13:20:52;2.05;;;1.55;;
27543;SDS011;17996;51.056;3.656;2023-07-29T13:23:18;2.88;;;1.73;;
27543;SDS011;17996;51.056;3.656;2023-07-29T13:25:44;3.90;;;1.55;;
27543;SDS011;17996;51.056;3.656;2023-07-29T13:28:10;5.25;;;2.03;;
27543;SDS011;17996;51.056;3.656;2023-07-29T13:30:35;5.13;;;1.73;;
27543;SDS011;17996;51.056;3.656;2023-07-29T13:33:01;9.07;;;2.80;;
27543;SDS011;17996;51.056;3.656;2023-07-29T13:35:28;3.47;;;2.15;;
27543;SDS011;17996;51.056;3.656;2023-07-29T13:37:54;3.75;;;2.22;;
27543;SDS011;17996;51.056;3.656;2023-07-29T13:40:20;3.35;;;2.13;;
27543;SDS011;17996;51.056;3.656;2023-07-29T13:42:46;4.57;;;2.67;;
27543;SDS011;17996;51.056;3.656;2023-07-29T13:45:11;5.38;;;2.80;;
27543;SDS011;17996;51.056;3.656;2023-07-29T13:47:37;3.65;;;2.78;;
27543;SDS011;17996;51.056;3.656;2023-07-29T13:50:03;10.65;;;2.75;;
27543;SDS011;17996;51.056;3.656;2023-07-29T13:52:29;3.28;;;2.95;;
27543;SDS011;17996;51.056;3.656;2023-07-29T13:54:55;10.07;;;3.45;;
27543;SDS011;17996;51.056;3.656;2023-07-29T13:57:20;7.32;;;2.80;;
27543;SDS011;17996;51.056;3.656;2023-07-29T13:59:46;7.68;;;3.20;;
27543;SDS011;17996;51.056;3.656;2023-07-29T14:02:12;7.88;;;2.55;;
27543;SDS011;17996;51.056;3.656;2023-07-29T14:04:38;5.32;;;2.55;;
27543;SDS011;17996;51.056;3.656;2023-07-29T14:07:04;5.13;;;2.10;;
27543;SDS011;17996;51.056;3.656;2023-07-29T14:09:29;1.92;;;1.45;;
27543;SDS011;17996;51.056;3.656;2023-07-29T14:11:55;1.98;;;1.75;;
27543;SDS011;17996;51.056;3.656;2023-07-29T14:14:21;2.63;;;1.83;;
27543;SDS011;17996;51.056;3.656;2023-07-29T14:16:47;2.25;;;1.70;;
27543;SDS011;17996;51.056;3.656;2023-07-29T14:19:13;3.53;;;1.77;;
27543;SDS011;17996;51.056;3.656;2023-07-29T14:21:38;4.03;;;2.10;;
27543;SDS011;17996;51.056;3.656;2023-07-29T14:24:05;5.68;;;1.20;;
27543;SDS011;17996;51.056;3.656;2023-07-29T14:26:30;2.05;;;1.38;;
27543;SDS011;17996;51.056;3.656;2023-07-29T14:28:56;5.20;;;1.17;;
27543;SDS011;17996;51.056;3.656;2023-07-29T14:31:22;4.38;;;1.30;;
27543;SDS011;17996;51.056;3.656;2023-07-29T14:33:47;4.18;;;1.48;;
27543;SDS011;17996;51.056;3.656;2023-07-29T14:36:14;1.50;;;1.40;;
27543;SDS011;17996;51.056;3.656;2023-07-29T14:38:43;1.73;;;1.50;;
27543;SDS011;17996;51.056;3.656;2023-07-29T14:41:09;2.55;;;1.17;;
27543;SDS011;17996;51.056;3.656;2023-07-29T14:43:34;2.92;;;1.20;;
27543;SDS011;17996;51.056;3.656;2023-07-29T14:46:00;4.93;;;1.25;;
27543;SDS011;17996;51.056;3.656;2023-07-29T14:48:26;2.55;;;1.33;;
27543;SDS011;17996;51.056;3.656;2023-07-29T14:50:52;4.80;;;1.45;;
27543;SDS011;17996;51.056;3.656;2023-07-29T14:53:18;4.25;;;1.20;;
27543;SDS011;17996;51.056;3.656;2023-07-29T14:55:44;2.20;;;1.40;;
27543;SDS011;17996;51.056;3.656;2023-07-29T14:58:09;2.13;;;1.00;;
27543;SDS011;17996;51.056;3.656;2023-07-29T15:00:35;2.35;;;1.52;;
27543;SDS011;17996;51.056;3.656;2023-07-29T15:03:00;2.85;;;1.42;;